Terminal Aerodrome Forecast
Issued by NWS

Home | Current Version | Previous Version | Text Only | Print | Product List | Glossary On
Versions: 1 2 3 4 5 6 7 8 9 10 11 12 13 14 15 16 17
000
FTUS44 KCRP 192333
TAFALI
TAF
KALI 192333Z 2000/2024 16022G30KT P6SM FEW040 SCT050
     FM200100 15017G23KT P6SM FEW030 SCT040
     FM200500 16014G19KT P6SM BKN020
     FM201500 17018G28KT P6SM SCT025 BKN030
     FM201900 16016G26KT P6SM SCT030 BKN040=

USA.gov is the U.S. government's official web portal to all federal, state and local government web resources and services.